createdAt,value
2018-11-07T00:00:39.662Z,97714.36
2018-11-07T00:03:43.805Z,97718.89
2018-11-07T00:06:47.950Z,97721.56
2018-11-07T00:09:52.362Z,97722.37
2018-11-07T00:12:56.510Z,97714.35
2018-11-07T00:16:00.658Z,97715.14
2018-11-07T00:19:04.995Z,97711.16
2018-11-07T00:22:09.134Z,97716.49
2018-11-07T00:25:13.550Z,97710.34
2018-11-07T00:28:17.677Z,97713.02
2018-11-07T00:31:21.823Z,97713.30
2018-11-07T00:34:25.948Z,97721.58
2018-11-07T00:37:30.110Z,97719.70
2018-11-07T00:40:34.226Z,97716.77
2018-11-07T00:43:38.334Z,97719.70
2018-11-07T00:46:42.453Z,97718.91
2018-11-07T00:49:46.573Z,97716.49
2018-11-07T00:52:50.697Z,97715.95
2018-11-07T00:55:55.634Z,97716.77
2018-11-07T00:58:59.750Z,97710.89
2018-11-07T01:02:03.882Z,97722.63
2018-11-07T01:05:09.920Z,97722.36
2018-11-07T01:08:14.042Z,97718.63
2018-11-07T01:11:18.166Z,97715.70
2018-11-07T01:14:22.306Z,97718.90
2018-11-07T01:17:26.435Z,97715.42
2018-11-07T01:20:30.561Z,97715.16
2018-11-07T01:23:34.936Z,97718.11
2018-11-07T01:26:39.089Z,97716.22
2018-11-07T01:29:43.211Z,97718.63
2018-11-07T01:32:47.343Z,97714.89
2018-11-07T01:35:51.465Z,97712.48
2018-11-07T01:38:55.587Z,97710.34
2018-11-07T01:41:59.725Z,97714.09
2018-11-07T01:45:03.821Z,97711.97
2018-11-07T01:48:07.995Z,97705.55
2018-11-07T01:51:12.122Z,97706.90
2018-11-07T01:54:16.248Z,97701.27
2018-11-07T01:57:20.368Z,97695.42
2018-11-07T02:00:24.487Z,97690.35
2018-11-07T02:03:28.606Z,97699.66
2018-11-07T02:06:32.720Z,97693.02
2018-11-07T02:09:36.832Z,97688.72
2018-11-07T02:12:41.548Z,97683.66
2018-11-07T02:15:45.720Z,97694.58
2018-11-07T02:18:49.826Z,97686.06
2018-11-07T02:21:53.934Z,97678.59
2018-11-07T02:24:58.059Z,97679.38
2018-11-07T02:28:02.160Z,97682.58
2018-11-07T02:31:06.442Z,97699.13
2018-11-07T02:34:10.562Z,97687.91
2018-11-07T02:37:14.674Z,97678.88
2018-11-07T02:40:18.795Z,97674.33
2018-11-07T02:43:22.907Z,97690.33
2018-11-07T02:46:27.017Z,97687.15
2018-11-07T02:49:31.126Z,97687.94
2018-11-07T02:52:35.235Z,97683.66
2018-11-07T02:55:39.345Z,97683.11
2018-11-07T02:58:43.457Z,97690.89
2018-11-07T03:01:47.577Z,97695.68
2018-11-07T03:04:51.695Z,97686.59
2018-11-07T03:07:55.858Z,97685.25
2018-11-07T03:11:04.016Z,97687.67
2018-11-07T03:14:08.898Z,97688.73
2018-11-07T03:17:13.011Z,97685.25
2018-11-07T03:20:17.120Z,97678.06
2018-11-07T03:23:21.516Z,97678.83
2018-11-07T03:26:25.906Z,97675.39
2018-11-07T03:29:30.023Z,97688.19
2018-11-07T03:32:34.135Z,97685.77
2018-11-07T03:35:38.231Z,97686.55
2018-11-07T03:38:42.351Z,97678.53
2018-11-07T03:41:46.443Z,97679.85
2018-11-07T03:44:50.554Z,97690.21
2018-11-07T03:47:54.856Z,97696.88
2018-11-07T03:50:59.370Z,97688.30
2018-11-07T03:54:03.497Z,97692.22
2018-11-07T03:57:07.622Z,97694.16
2018-11-07T04:00:11.741Z,97702.70
2018-11-07T04:03:16.079Z,97693.08
2018-11-07T04:06:20.195Z,97691.74
2018-11-07T04:09:24.328Z,97692.98
2018-11-07T04:12:28.456Z,97694.57
2018-11-07T04:15:32.579Z,97692.70
2018-11-07T04:18:36.703Z,97690.33
2018-11-07T04:21:40.839Z,97696.15
2018-11-07T04:24:44.962Z,97691.63
2018-11-07T04:27:49.079Z,97688.94
2018-11-07T04:30:53.206Z,97693.97
2018-11-07T04:33:57.343Z,97685.41
2018-11-07T04:37:01.454Z,97675.81
2018-11-07T04:40:06.362Z,97682.22
2018-11-07T04:43:10.499Z,97691.55
2018-11-07T04:46:14.615Z,97693.73
2018-11-07T04:49:18.737Z,97700.95
2018-11-07T04:52:22.869Z,97681.77
2018-11-07T04:55:26.986Z,97678.59
2018-11-07T04:58:31.130Z,97686.39
2018-11-07T05:01:35.241Z,97687.20
2018-11-07T05:04:39.371Z,97679.98
2018-11-07T05:07:43.482Z,97684.27
2018-11-07T05:10:47.601Z,97688.27
2018-11-07T05:13:51.719Z,97691.69
2018-11-07T05:16:55.840Z,97688.19
2018-11-07T05:19:59.963Z,97685.79
2018-11-07T05:23:04.306Z,97692.27
2018-11-07T05:26:08.480Z,97695.50
2018-11-07T05:29:12.559Z,97697.36
2018-11-07T05:32:16.687Z,97693.33
2018-11-07T05:35:20.806Z,97687.25
2018-11-07T05:38:24.934Z,97686.44
2018-11-07T05:41:29.063Z,97682.44
2018-11-07T05:44:33.194Z,97690.19
2018-11-07T05:47:37.310Z,97694.22
2018-11-07T05:50:41.430Z,97692.61
2018-11-07T05:53:45.539Z,97700.64
2018-11-07T05:56:49.664Z,97704.64
2018-11-07T05:59:53.790Z,97702.73
2018-11-07T06:02:57.922Z,97700.58
2018-11-07T06:06:02.087Z,97703.80
2018-11-07T06:09:08.406Z,97700.41
2018-11-07T06:12:12.534Z,97706.81
2018-11-07T06:15:16.665Z,97711.09
2018-11-07T06:18:20.788Z,97713.47
2018-11-07T06:21:24.931Z,97719.08
2018-11-07T06:24:29.166Z,97722.30
2018-11-07T06:27:33.411Z,97726.02
2018-11-07T06:30:37.562Z,97722.29
2018-11-07T06:33:41.677Z,97726.27
2018-11-07T06:36:45.803Z,97723.58
2018-11-07T06:39:49.918Z,97733.13
2018-11-07T06:42:54.028Z,97732.85
2018-11-07T06:45:58.147Z,97737.91
2018-11-07T06:49:02.346Z,97741.35
2018-11-07T06:52:06.593Z,97741.91
2018-11-07T06:55:11.394Z,97748.02
2018-11-07T06:58:15.516Z,97750.14
2018-11-07T07:01:19.820Z,97755.73
2018-11-07T07:04:24.003Z,97759.67
2018-11-07T07:07:28.118Z,97759.36
2018-11-07T07:10:32.227Z,97752.97
2018-11-07T07:13:36.795Z,97752.94
2018-11-07T07:16:40.954Z,97751.69
2018-11-07T07:19:45.099Z,97754.36
2018-11-07T07:22:49.801Z,97758.59
2018-11-07T07:25:53.938Z,97759.40
2018-11-07T07:28:58.059Z,97763.44
2018-11-07T07:32:02.212Z,97758.86
2018-11-07T07:35:06.739Z,97767.13
2018-11-07T07:38:10.850Z,97762.64
2018-11-07T07:41:14.970Z,97752.52
2018-11-07T07:44:19.091Z,97745.69
2018-11-07T07:47:23.211Z,97739.59
2018-11-07T07:50:27.415Z,97739.10
2018-11-07T07:53:31.531Z,97745.55
2018-11-07T07:56:35.686Z,97756.52
2018-11-07T07:59:39.898Z,97755.46
2018-11-07T08:02:45.525Z,97753.34
2018-11-07T08:05:49.728Z,97750.41
2018-11-07T08:08:53.871Z,97750.66
2018-11-07T08:11:58.027Z,97746.42
2018-11-07T08:15:02.130Z,97750.14
2018-11-07T08:18:07.187Z,97750.11
2018-11-07T08:21:11.515Z,97754.63
2018-11-07T08:24:15.563Z,97754.08
2018-11-07T08:27:19.683Z,97755.36
2018-11-07T08:30:23.807Z,97749.45
2018-11-07T08:33:27.950Z,97745.13
2018-11-07T08:36:32.091Z,97747.20
2018-11-07T08:39:36.216Z,97734.83
2018-11-07T08:42:40.567Z,97736.37
2018-11-07T08:45:44.702Z,97742.18
2018-11-07T08:48:48.863Z,97740.73
2018-11-07T08:51:53.011Z,97737.99
2018-11-07T08:54:57.286Z,97728.26
2018-11-07T08:58:01.460Z,97735.66
2018-11-07T09:01:05.670Z,97736.89
2018-11-07T09:04:09.751Z,97736.50
2018-11-07T09:07:13.895Z,97735.83
2018-11-07T09:10:19.361Z,97735.22
2018-11-07T09:13:23.495Z,97731.34
2018-11-07T09:16:27.642Z,97730.41
2018-11-07T09:23:03.871Z,97738.02
2018-11-07T09:26:08.051Z,97735.12
2018-11-07T09:29:12.269Z,97724.63
2018-11-07T09:32:16.356Z,97718.93
2018-11-07T09:35:21.106Z,97716.38
2018-11-07T09:38:25.215Z,97717.30
2018-11-07T09:41:29.363Z,97712.18
2018-11-07T09:44:33.505Z,97706.33
2018-11-07T09:47:37.779Z,97708.45
2018-11-07T09:50:41.897Z,97708.03
2018-11-07T09:53:46.043Z,97701.86
2018-11-07T09:56:50.186Z,97712.65
2018-11-07T09:59:54.333Z,97697.23
2018-11-07T10:02:58.497Z,97694.27
2018-11-07T10:06:02.671Z,97696.54
2018-11-07T10:09:09.335Z,97703.55
2018-11-07T10:12:13.488Z,97694.13
2018-11-07T10:15:17.902Z,97691.63
2018-11-07T10:18:22.052Z,97689.89
2018-11-07T10:21:26.200Z,97685.05
2018-11-07T10:24:30.335Z,97681.98
2018-11-07T10:27:34.755Z,97675.61
2018-11-07T10:30:38.643Z,97675.70
2018-11-07T10:33:43.139Z,97673.34
2018-11-07T10:36:47.291Z,97665.67
2018-11-07T10:39:51.529Z,97666.63
2018-11-07T10:42:55.607Z,97667.95
2018-11-07T10:45:59.823Z,97675.86
2018-11-07T10:49:03.913Z,97676.84
2018-11-07T10:52:08.278Z,97669.18
2018-11-07T10:55:13.319Z,97665.52
2018-11-07T10:58:17.486Z,97668.41
2018-11-07T11:01:26.870Z,97673.45
2018-11-07T11:04:31.015Z,97671.52
2018-11-07T11:07:35.168Z,97665.95
2018-11-07T11:10:39.735Z,97661.77
2018-11-07T11:13:43.890Z,97662.59
2018-11-07T11:16:48.039Z,97661.20
2018-11-07T11:19:52.176Z,97665.05
2018-11-07T11:22:56.386Z,97659.64
2018-11-07T11:26:00.657Z,97651.99
2018-11-07T11:29:04.695Z,97645.06
2018-11-07T11:32:08.853Z,97640.80
2018-11-07T11:35:13.290Z,97649.08
2018-11-07T11:38:17.254Z,97637.75
2018-11-07T11:41:21.408Z,97635.00
2018-11-07T11:44:25.548Z,97634.30
2018-11-07T11:47:29.694Z,97630.06
2018-11-07T11:50:33.844Z,97629.54
2018-11-07T11:53:38.063Z,97630.92
2018-11-07T11:56:42.427Z,97628.34
2018-11-07T11:59:46.811Z,97621.21
2018-11-07T12:02:50.782Z,97625.17
2018-11-07T12:05:54.933Z,97621.75
2018-11-07T12:08:59.158Z,97620.66
2018-11-07T12:12:03.249Z,97606.19
2018-11-07T12:15:07.481Z,97604.23
2018-11-07T12:18:11.615Z,97610.06
2018-11-07T12:21:15.799Z,97610.09
2018-11-07T12:24:19.947Z,97609.52
2018-11-07T12:27:24.184Z,97606.17
2018-11-07T12:30:28.345Z,97606.00
2018-11-07T12:33:32.487Z,97608.16
2018-11-07T12:36:36.666Z,97612.67
2018-11-07T12:39:40.763Z,97618.05
2018-11-07T12:42:44.952Z,97603.34
2018-11-07T12:45:49.087Z,97604.02
2018-11-07T12:48:53.234Z,97604.19
2018-11-07T12:51:57.411Z,97609.80
2018-11-07T12:55:01.551Z,97607.13
2018-11-07T12:58:05.946Z,97603.02
2018-11-07T13:01:10.072Z,97605.04
2018-11-07T13:04:14.248Z,97600.34
2018-11-07T13:07:18.399Z,97605.56
2018-11-07T13:10:23.238Z,97608.23
2018-11-07T13:13:27.463Z,97611.08
2018-11-07T13:16:31.642Z,97614.33
2018-11-07T13:19:35.750Z,97615.80
2018-11-07T13:22:39.911Z,97611.77
2018-11-07T13:25:44.047Z,97617.23
2018-11-07T13:28:48.254Z,97621.66
2018-11-07T13:31:52.342Z,97623.16
2018-11-07T13:34:56.578Z,97623.94
2018-11-07T13:38:00.911Z,97631.97
2018-11-07T13:41:05.460Z,97631.97
2018-11-07T13:44:09.522Z,97634.11
2018-11-07T13:47:13.739Z,97636.43
2018-11-07T13:50:18.382Z,97636.49
2018-11-07T13:53:22.520Z,97633.61
2018-11-07T13:56:26.926Z,97644.05
2018-11-07T13:59:31.093Z,97637.93
2018-11-07T14:02:35.222Z,97643.64
2018-11-07T14:05:39.555Z,97652.20
2018-11-07T14:08:43.510Z,97662.80
2018-11-07T14:11:47.657Z,97668.27
2018-11-07T14:14:51.810Z,97673.17
2018-11-07T14:17:55.959Z,97675.53
2018-11-07T14:21:00.103Z,97684.53
2018-11-07T14:24:04.593Z,97684.63
2018-11-07T14:27:08.739Z,97677.80
2018-11-07T14:30:15.807Z,97684.00
2018-11-07T14:33:19.972Z,97683.42
2018-11-07T14:36:24.155Z,97680.23
2018-11-07T14:39:28.291Z,97683.90
2018-11-07T14:42:32.442Z,97689.91
2018-11-07T14:45:36.678Z,97689.09
2018-11-07T14:48:41.307Z,97707.22
2018-11-07T14:51:45.454Z,97706.51
2018-11-07T14:54:49.598Z,97704.52
2018-11-07T14:57:53.742Z,97711.39
2018-11-07T15:00:57.903Z,97721.05
2018-11-07T15:04:02.053Z,97723.98
2018-11-07T15:07:06.435Z,97719.48
2018-11-07T15:10:11.621Z,97718.88
2018-11-07T15:13:15.770Z,97730.63
2018-11-07T15:16:19.926Z,97732.95
2018-11-07T15:19:24.091Z,97734.31
2018-11-07T15:22:28.216Z,97746.05
2018-11-07T15:25:32.361Z,97745.15
2018-11-07T15:28:36.574Z,97759.53
2018-11-07T15:31:40.719Z,97757.89
2018-11-07T15:34:44.871Z,97765.27
2018-11-07T15:37:49.023Z,97763.11
2018-11-07T15:40:53.175Z,97771.12
2018-11-07T15:43:57.348Z,97781.67
2018-11-07T15:47:01.487Z,97779.97
2018-11-07T15:50:10.783Z,97785.78
2018-11-07T15:53:14.937Z,97790.08
2018-11-07T15:56:19.087Z,97784.51
2018-11-07T15:59:23.235Z,97789.25
2018-11-07T16:02:27.382Z,97792.09
2018-11-07T16:05:31.523Z,97803.59
2018-11-07T16:08:35.676Z,97811.59
2018-11-07T16:11:39.816Z,97813.58
2018-11-07T16:14:43.967Z,97816.00
2018-11-07T16:17:48.111Z,97818.22
2018-11-07T16:20:52.283Z,97827.47
2018-11-07T16:23:56.669Z,97826.00
2018-11-07T16:27:00.738Z,97834.97
2018-11-07T16:30:06.371Z,97838.23
2018-11-07T16:33:10.516Z,97840.14
2018-11-07T16:36:14.663Z,97848.12
2018-11-07T16:39:18.811Z,97850.84
2018-11-07T16:42:22.979Z,97859.94
2018-11-07T16:45:27.096Z,97862.27
2018-11-07T16:48:31.289Z,97872.18
2018-11-07T16:51:35.382Z,97870.34
2018-11-07T16:54:39.516Z,97878.25
2018-11-07T16:57:43.707Z,97879.95
2018-11-07T17:00:47.855Z,97889.44
2018-11-07T17:03:52.003Z,97903.77
2018-11-07T17:06:56.192Z,97902.61
2018-11-07T17:10:00.294Z,97911.56
2018-11-07T17:13:04.459Z,97913.14
2018-11-07T17:16:08.662Z,97919.59
2018-11-07T17:19:12.849Z,97924.97
2018-11-07T17:22:16.998Z,97925.88
2018-11-07T17:25:21.155Z,97929.86
2018-11-07T17:28:25.299Z,97933.03
2018-11-07T17:31:30.495Z,97940.27
2018-11-07T17:34:34.619Z,97944.23
2018-11-07T17:37:38.796Z,97947.19
2018-11-07T17:40:42.940Z,97952.86
2018-11-07T17:43:47.103Z,97949.95
2018-11-07T17:46:51.251Z,97956.89
2018-11-07T17:49:55.399Z,97959.27
2018-11-07T17:52:59.539Z,97959.88
2018-11-07T17:56:03.690Z,97968.00
2018-11-07T17:59:07.940Z,97972.27
2018-11-07T18:02:12.083Z,97973.67
2018-11-07T18:05:16.319Z,97977.72
2018-11-07T18:08:20.459Z,97977.26
2018-11-07T18:11:24.611Z,97989.45
2018-11-07T18:14:28.745Z,97989.52
2018-11-07T18:17:32.896Z,97997.05
2018-11-07T18:20:37.022Z,97998.95
2018-11-07T18:23:41.498Z,98002.76
2018-11-07T18:26:45.664Z,98010.05
2018-11-07T18:29:49.800Z,98013.05
2018-11-07T18:32:53.944Z,98016.45
2018-11-07T18:35:58.085Z,98012.97
2018-11-07T18:39:02.224Z,98021.58
2018-11-07T18:42:06.350Z,98019.19
2018-11-07T18:45:11.831Z,98026.74
2018-11-07T18:48:15.956Z,98031.62
2018-11-07T18:51:20.085Z,98037.50
2018-11-07T18:54:24.221Z,98043.15
2018-11-07T18:57:28.355Z,98045.87
2018-11-07T19:00:32.502Z,98053.09
2018-11-07T19:03:36.676Z,98050.45
2018-11-07T19:06:40.882Z,98053.12
2018-11-07T19:09:44.964Z,98057.98
2018-11-07T19:12:49.606Z,98058.23
2018-11-07T19:15:53.749Z,98067.08
2018-11-07T19:18:57.887Z,98068.95
2018-11-07T19:22:02.015Z,98066.02
2018-11-07T19:25:08.602Z,98070.03
2018-11-07T19:28:12.738Z,98078.33
2018-11-07T19:31:16.883Z,98079.67
2018-11-07T19:34:21.014Z,98085.84
2018-11-07T19:37:25.150Z,98083.66
2018-11-07T19:40:29.285Z,98087.43
2018-11-07T19:43:33.406Z,98091.45
2018-11-07T19:46:37.881Z,98098.70
2018-11-07T19:49:42.020Z,98092.54
2018-11-07T19:52:47.321Z,98105.66
2018-11-07T19:55:51.456Z,98096.25
2018-11-07T19:58:55.696Z,98100.53
2018-11-07T20:01:59.841Z,98106.39
2018-11-07T20:05:04.014Z,98112.53
2018-11-07T20:08:08.166Z,98112.00
2018-11-07T20:11:12.322Z,98114.96
2018-11-07T20:14:16.458Z,98123.75
2018-11-07T20:17:20.615Z,98126.40
2018-11-07T20:20:24.747Z,98130.91
2018-11-07T20:23:28.887Z,98132.78
2018-11-07T20:26:33.036Z,98128.77
2018-11-07T20:29:37.158Z,98134.41
2018-11-07T20:32:41.566Z,98144.61
2018-11-07T20:35:45.987Z,98140.05
2018-11-07T20:38:50.017Z,98140.58
2018-11-07T20:41:54.336Z,98142.17
2018-11-07T20:44:58.307Z,98144.81
2018-11-07T20:48:02.464Z,98152.90
2018-11-07T20:51:06.885Z,98156.11
2018-11-07T20:54:11.042Z,98156.64
2018-11-07T20:57:15.263Z,98158.80
2018-11-07T21:00:20.751Z,98167.90
2018-11-07T21:03:24.891Z,98166.38
2018-11-07T21:06:29.044Z,98167.73
2018-11-07T21:09:33.219Z,98171.45
2018-11-07T21:12:37.472Z,98182.44
2018-11-07T21:15:41.610Z,98182.69
2018-11-07T21:18:45.751Z,98180.81
2018-11-07T21:21:49.876Z,98189.39
2018-11-07T21:24:54.007Z,98190.23
2018-11-07T21:27:58.167Z,98199.08
2018-11-07T21:31:02.332Z,98196.15
2018-11-07T21:34:06.455Z,98205.50
2018-11-07T21:37:10.595Z,98208.47
2018-11-07T21:40:16.533Z,98214.64
2018-11-07T21:43:20.667Z,98220.25
2018-11-07T21:46:24.806Z,98226.43
2018-11-07T21:49:28.940Z,98230.17
2018-11-07T21:52:33.076Z,98225.34
2018-11-07T21:55:37.202Z,98228.53
2018-11-07T21:58:41.331Z,98231.23
2018-11-07T22:01:45.494Z,98232.83
2018-11-07T22:04:49.628Z,98233.13
2018-11-07T22:07:53.786Z,98230.20
2018-11-07T22:10:57.910Z,98236.64
2018-11-07T22:14:02.063Z,98236.92
2018-11-07T22:17:06.242Z,98232.11
2018-11-07T22:20:14.541Z,98237.47
2018-11-07T22:23:18.678Z,98237.19
2018-11-07T22:26:22.835Z,98239.06
2018-11-07T22:29:26.970Z,98242.28
2018-11-07T22:32:31.112Z,98250.05
2018-11-07T22:35:35.272Z,98254.07
2018-11-07T22:38:39.409Z,98258.33
2018-11-07T22:41:44.578Z,98262.89
2018-11-07T22:44:48.714Z,98266.40
2018-11-07T22:47:52.865Z,98258.09
2018-11-07T22:50:56.992Z,98260.75
2018-11-07T22:54:01.455Z,98263.70
2018-11-07T22:57:06.008Z,98262.09
2018-11-07T23:00:18.411Z,98259.44
2018-11-07T23:03:22.563Z,98258.91
2018-11-07T23:06:26.720Z,98258.08
2018-11-07T23:09:30.864Z,98253.53
2018-11-07T23:12:34.999Z,98253.77
2018-11-07T23:15:44.721Z,98258.07
2018-11-07T23:18:48.871Z,98260.52
2018-11-07T23:21:53.014Z,98265.59
2018-11-07T23:24:57.156Z,98267.23
2018-11-07T23:28:01.283Z,98274.97
2018-11-07T23:31:05.427Z,98271.25
2018-11-07T23:34:09.573Z,98277.41
2018-11-07T23:37:13.786Z,98280.91
2018-11-07T23:40:17.927Z,98285.98
2018-11-07T23:43:22.073Z,98289.20
2018-11-07T23:46:26.210Z,98301.80
2018-11-07T23:49:30.361Z,98302.08
2018-11-07T23:52:39.769Z,98299.67
2018-11-07T23:55:44.877Z,98302.34
2018-11-07T23:58:49.306Z,98300.47
